createdAt,value
2018-03-22T00:00:47.412Z,0
2018-03-22T00:01:56.254Z,0
2018-03-22T00:03:05.096Z,0
2018-03-22T00:04:13.935Z,0
2018-03-22T00:05:23.057Z,0
2018-03-22T00:06:31.891Z,0
2018-03-22T00:07:40.733Z,0
2018-03-22T00:08:49.848Z,0
2018-03-22T00:09:58.695Z,0
2018-03-22T00:11:07.811Z,0
2018-03-22T00:12:16.907Z,0
2018-03-22T00:13:25.746Z,0
2018-03-22T00:14:34.588Z,0
2018-03-22T00:15:43.429Z,0
2018-03-22T00:16:52.270Z,0
2018-03-22T00:18:01.114Z,0
2018-03-22T00:19:09.958Z,0
2018-03-22T00:20:18.799Z,0
2018-03-22T00:21:27.917Z,0
2018-03-22T00:22:36.756Z,0
2018-03-22T00:23:45.649Z,0
2018-03-22T00:24:54.768Z,0
2018-03-22T00:26:03.613Z,0
2018-03-22T00:27:12.504Z,0
2018-03-22T00:28:21.623Z,0
2018-03-22T00:29:30.844Z,0
2018-03-22T00:30:39.687Z,0
2018-03-22T00:31:48.810Z,0
2018-03-22T00:32:57.760Z,0
2018-03-22T00:34:06.670Z,0
2018-03-22T00:35:15.843Z,0
2018-03-22T00:36:25.234Z,0
2018-03-22T00:37:34.062Z,0
2018-03-22T00:38:42.891Z,0
2018-03-22T00:39:51.722Z,0
2018-03-22T00:41:00.650Z,0
2018-03-22T00:42:09.478Z,0
2018-03-22T00:43:18.309Z,0
2018-03-22T00:44:27.138Z,0
2018-03-22T00:45:35.965Z,0
2018-03-22T00:46:44.945Z,0
2018-03-22T00:47:53.776Z,0
2018-03-22T00:49:02.884Z,0
2018-03-22T00:50:11.987Z,0
2018-03-22T00:51:20.821Z,0
2018-03-22T00:52:29.755Z,0
2018-03-22T00:53:38.583Z,0
2018-03-22T00:54:47.410Z,0
2018-03-22T00:55:56.238Z,0
2018-03-22T00:57:05.066Z,0
2018-03-22T00:58:13.995Z,0
2018-03-22T00:59:22.827Z,0
2018-03-22T01:00:31.934Z,0
2018-03-22T01:01:40.764Z,0
2018-03-22T01:02:49.595Z,0
2018-03-22T01:03:58.673Z,0
2018-03-22T01:05:07.501Z,0
2018-03-22T01:06:16.328Z,0
2018-03-22T01:07:25.165Z,0
2018-03-22T01:08:34.002Z,0
2018-03-22T01:09:43.109Z,0
2018-03-22T01:10:51.938Z,0
2018-03-22T01:12:00.769Z,0
2018-03-22T01:13:09.597Z,0
2018-03-22T01:14:18.427Z,0
2018-03-22T01:15:27.729Z,0
2018-03-22T01:16:36.555Z,0
2018-03-22T01:17:45.385Z,0
2018-03-22T01:18:54.211Z,0
2018-03-22T01:20:03.045Z,0
2018-03-22T01:21:12.245Z,0
2018-03-22T01:22:21.635Z,0
2018-03-22T01:23:30.735Z,0
2018-03-22T01:24:39.562Z,0
2018-03-22T01:25:48.395Z,0
2018-03-22T01:26:57.273Z,0
2018-03-22T01:28:06.105Z,0
2018-03-22T01:29:14.932Z,0
2018-03-22T01:30:23.760Z,0
2018-03-22T01:31:32.590Z,0
2018-03-22T01:32:41.467Z,0
2018-03-22T01:33:50.389Z,0
2018-03-22T01:34:59.216Z,0
2018-03-22T01:36:08.045Z,0
2018-03-22T01:37:16.874Z,0
2018-03-22T01:38:26.324Z,0
2018-03-22T01:39:35.151Z,0
2018-03-22T01:40:44.044Z,0
2018-03-22T01:41:52.877Z,0
2018-03-22T01:43:01.706Z,0
2018-03-22T01:44:10.583Z,0
2018-03-22T01:45:19.419Z,0
2018-03-22T01:46:28.243Z,0
2018-03-22T01:47:37.072Z,0
2018-03-22T01:48:45.898Z,0
2018-03-22T01:49:54.878Z,0
2018-03-22T01:51:03.982Z,0
2018-03-22T01:52:12.810Z,0
2018-03-22T01:53:21.639Z,0
2018-03-22T01:54:30.466Z,0
2018-03-22T01:55:39.342Z,0
2018-03-22T01:56:48.450Z,0
2018-03-22T01:57:57.275Z,0
2018-03-22T01:59:06.105Z,0
2018-03-22T02:00:14.938Z,0
2018-03-22T02:01:23.823Z,0
2018-03-22T02:02:32.649Z,0
2018-03-22T02:03:41.478Z,0
2018-03-22T02:04:50.306Z,0
2018-03-22T02:05:59.130Z,0
2018-03-22T02:07:08.263Z,0
2018-03-22T02:08:17.366Z,0
2018-03-22T02:09:26.193Z,0
2018-03-22T02:10:35.584Z,0
2018-03-22T02:11:44.689Z,0
2018-03-22T02:12:53.817Z,0
2018-03-22T02:14:02.650Z,0
2018-03-22T02:15:11.761Z,0
2018-03-22T02:16:20.596Z,0
2018-03-22T02:17:29.696Z,0
2018-03-22T02:18:38.675Z,0
2018-03-22T02:19:47.503Z,0
2018-03-22T02:20:56.332Z,0
2018-03-22T02:22:05.159Z,0
2018-03-22T02:23:13.988Z,0
2018-03-22T02:24:23.149Z,0
2018-03-22T02:25:31.981Z,0
2018-03-22T02:26:40.803Z,0
2018-03-22T02:27:49.632Z,0
2018-03-22T02:28:58.459Z,0
2018-03-22T02:30:07.338Z,0
2018-03-22T02:31:16.165Z,0
2018-03-22T02:32:24.996Z,0
2018-03-22T02:33:33.820Z,0
2018-03-22T02:34:42.650Z,0
2018-03-22T02:35:51.630Z,0
2018-03-22T02:37:00.458Z,0
2018-03-22T02:38:09.292Z,0
2018-03-22T02:39:18.118Z,0
2018-03-22T02:40:26.947Z,0
2018-03-22T02:41:35.925Z,0
2018-03-22T02:42:44.763Z,0
2018-03-22T02:43:53.858Z,0
2018-03-22T02:45:02.963Z,0
2018-03-22T02:46:12.078Z,0
2018-03-22T02:47:21.007Z,0
2018-03-22T02:48:29.835Z,0
2018-03-22T02:49:38.940Z,0
2018-03-22T02:50:47.770Z,0
2018-03-22T02:51:56.874Z,0
2018-03-22T02:53:05.751Z,0
2018-03-22T02:54:14.581Z,0
2018-03-22T02:55:23.418Z,0
2018-03-22T02:56:32.515Z,0
2018-03-22T02:57:41.618Z,0
2018-03-22T02:58:50.446Z,0
2018-03-22T02:59:59.294Z,0
2018-03-22T03:01:08.102Z,0
2018-03-22T03:02:16.932Z,0
2018-03-22T03:03:25.762Z,0
2018-03-22T03:04:34.841Z,0
2018-03-22T03:05:44.224Z,0
2018-03-22T03:06:53.051Z,0
2018-03-22T03:08:01.880Z,0
2018-03-22T03:09:10.708Z,0
2018-03-22T03:10:19.640Z,0
2018-03-22T03:11:28.464Z,0
2018-03-22T03:12:37.296Z,0
2018-03-22T03:13:46.128Z,0
2018-03-22T03:14:55.231Z,0
2018-03-22T03:16:04.061Z,0
2018-03-22T03:17:13.167Z,0
2018-03-22T03:18:21.993Z,0
2018-03-22T03:19:30.824Z,0
2018-03-22T03:20:39.652Z,0
2018-03-22T03:21:48.628Z,0
2018-03-22T03:22:57.453Z,0
2018-03-22T03:24:06.283Z,0
2018-03-22T03:25:15.112Z,0
2018-03-22T03:26:23.937Z,0
2018-03-22T03:27:32.765Z,0
2018-03-22T03:28:41.593Z,0
2018-03-22T03:29:50.421Z,0
2018-03-22T03:30:59.250Z,0
2018-03-22T03:32:08.076Z,0
2018-03-22T03:33:17.204Z,0
2018-03-22T03:34:26.035Z,0
2018-03-22T03:35:34.861Z,0
2018-03-22T03:36:43.962Z,0
2018-03-22T03:37:52.787Z,0
2018-03-22T03:39:01.819Z,0
2018-03-22T03:40:10.922Z,0
2018-03-22T03:41:19.821Z,0
2018-03-22T03:42:28.575Z,0
2018-03-22T03:43:37.402Z,0
2018-03-22T03:44:46.428Z,0
2018-03-22T03:45:55.260Z,0
2018-03-22T03:47:04.360Z,0
2018-03-22T03:48:13.188Z,0
2018-03-22T03:49:22.017Z,0
2018-03-22T03:50:31.270Z,0
2018-03-22T03:51:40.096Z,0
2018-03-22T03:52:48.928Z,0
2018-03-22T03:53:57.758Z,0
2018-03-22T03:55:06.868Z,0
2018-03-22T03:56:15.974Z,0
2018-03-22T03:57:24.806Z,0
2018-03-22T03:58:33.633Z,0
2018-03-22T03:59:42.459Z,0
2018-03-22T04:00:51.288Z,0
2018-03-22T04:02:00.365Z,0
2018-03-22T04:03:09.199Z,0
2018-03-22T04:04:18.027Z,0
2018-03-22T04:05:26.855Z,0
2018-03-22T04:06:35.681Z,0
2018-03-22T04:07:44.609Z,0
2018-03-22T04:08:53.435Z,0
2018-03-22T04:10:02.265Z,0
2018-03-22T04:11:11.300Z,0
2018-03-22T04:12:20.126Z,0
2018-03-22T04:13:29.257Z,0
2018-03-22T04:14:38.086Z,0
2018-03-22T04:15:46.918Z,0
2018-03-22T04:16:55.744Z,0
2018-03-22T04:18:04.573Z,0
2018-03-22T04:19:13.509Z,0
2018-03-22T04:20:22.338Z,0
2018-03-22T04:21:31.167Z,0
2018-03-22T04:22:39.993Z,0
2018-03-22T04:23:48.825Z,0
2018-03-22T04:24:58.079Z,0
2018-03-22T04:26:06.906Z,0
2018-03-22T04:27:15.735Z,0
2018-03-22T04:28:24.563Z,0
2018-03-22T04:29:33.665Z,0
2018-03-22T04:30:42.544Z,0
2018-03-22T04:31:51.650Z,0
2018-03-22T04:33:00.477Z,0
2018-03-22T04:34:09.355Z,0
2018-03-22T04:35:18.238Z,0
2018-03-22T04:36:27.063Z,0
2018-03-22T04:37:36.166Z,0
2018-03-22T04:38:45.001Z,0
2018-03-22T04:39:53.827Z,0
2018-03-22T04:41:02.654Z,0
2018-03-22T04:42:11.907Z,0
2018-03-22T04:43:21.011Z,0
2018-03-22T04:44:30.124Z,0
2018-03-22T04:45:38.949Z,0
2018-03-22T04:46:48.047Z,0
2018-03-22T04:47:57.204Z,0
2018-03-22T04:49:06.031Z,0
2018-03-22T04:50:15.136Z,0
2018-03-22T04:51:23.963Z,0
2018-03-22T04:52:32.792Z,0
2018-03-22T04:53:41.621Z,0
2018-03-22T04:54:50.445Z,0
2018-03-22T04:55:59.274Z,0
2018-03-22T04:57:08.102Z,0
2018-03-22T04:58:16.933Z,0
2018-03-22T04:59:25.814Z,0
2018-03-22T05:00:34.643Z,0
2018-03-22T05:01:43.471Z,0
2018-03-22T05:02:52.301Z,0
2018-03-22T05:04:01.133Z,0
2018-03-22T05:05:10.014Z,0
2018-03-22T05:06:18.840Z,0
2018-03-22T05:07:27.951Z,0
2018-03-22T05:08:36.779Z,0
2018-03-22T05:09:45.892Z,0
2018-03-22T05:10:54.870Z,0
2018-03-22T05:12:03.700Z,0
2018-03-22T05:13:12.532Z,0
2018-03-22T05:14:21.632Z,0
2018-03-22T05:15:30.462Z,0
2018-03-22T05:16:39.591Z,0
2018-03-22T05:17:48.417Z,0
2018-03-22T05:18:57.247Z,0
2018-03-22T05:20:06.078Z,0
2018-03-22T05:21:14.906Z,0
2018-03-22T05:22:23.886Z,0
2018-03-22T05:23:32.714Z,0
2018-03-22T05:24:41.541Z,0
2018-03-22T05:25:50.371Z,0
2018-03-22T05:26:59.200Z,0
2018-03-22T05:28:08.364Z,0
2018-03-22T05:29:17.190Z,0
2018-03-22T05:30:26.024Z,0
2018-03-22T05:31:34.862Z,0
2018-03-22T05:32:43.691Z,0
2018-03-22T05:33:52.719Z,0
2018-03-22T05:35:01.550Z,5
2018-03-22T05:36:10.379Z,5
2018-03-22T05:37:19.211Z,5
2018-03-22T05:38:28.034Z,5
2018-03-22T05:39:36.914Z,5
2018-03-22T05:40:45.744Z,5
2018-03-22T05:41:54.572Z,5
2018-03-22T05:43:03.402Z,5
2018-03-22T05:44:12.237Z,10
2018-03-22T05:45:21.508Z,10
2018-03-22T05:46:30.343Z,10
2018-03-22T05:47:39.447Z,10
2018-03-22T05:48:48.269Z,10
2018-03-22T05:49:57.102Z,10
2018-03-22T05:51:06.026Z,10
2018-03-22T05:52:14.854Z,10
2018-03-22T05:53:23.682Z,10
2018-03-22T05:54:32.788Z,10
2018-03-22T05:55:41.618Z,10
2018-03-22T05:56:50.497Z,10
2018-03-22T05:57:59.324Z,10
2018-03-22T05:59:08.153Z,10
2018-03-22T06:00:16.984Z,15
2018-03-22T06:01:25.811Z,15
2018-03-22T06:02:34.638Z,10
2018-03-22T06:03:43.466Z,15
2018-03-22T06:04:52.303Z,10
2018-03-22T06:06:01.408Z,10
2018-03-22T06:07:10.238Z,15
2018-03-22T06:08:19.366Z,15
2018-03-22T06:09:28.197Z,15
2018-03-22T06:10:37.027Z,15
2018-03-22T06:11:45.854Z,15
2018-03-22T06:12:54.685Z,20
2018-03-22T06:14:03.661Z,15
2018-03-22T06:15:12.502Z,20
2018-03-22T06:16:21.332Z,20
2018-03-22T06:17:30.191Z,15
2018-03-22T06:18:38.991Z,15
2018-03-22T06:19:47.971Z,20
2018-03-22T06:20:57.080Z,20
2018-03-22T06:22:05.909Z,25
2018-03-22T06:23:14.748Z,20
2018-03-22T06:24:23.577Z,20
2018-03-22T06:25:32.936Z,20
2018-03-22T06:26:41.773Z,25
2018-03-22T06:27:50.600Z,25
2018-03-22T06:28:59.817Z,25
2018-03-22T06:30:08.659Z,30
2018-03-22T06:31:17.491Z,25
2018-03-22T06:32:26.318Z,25
2018-03-22T06:33:35.145Z,25
2018-03-22T06:34:44.260Z,30
2018-03-22T06:35:53.086Z,30
2018-03-22T06:37:02.066Z,30
2018-03-22T06:38:10.897Z,30
2018-03-22T06:39:19.727Z,35
2018-03-22T06:40:28.562Z,45
2018-03-22T06:41:37.390Z,40
2018-03-22T06:42:46.622Z,35
2018-03-22T06:43:55.449Z,45
2018-03-22T06:45:04.278Z,40
2018-03-22T06:46:13.110Z,35
2018-03-22T06:47:22.234Z,30
2018-03-22T06:48:31.816Z,30
2018-03-22T06:49:40.647Z,35
2018-03-22T06:50:49.475Z,40
2018-03-22T06:51:58.582Z,45
2018-03-22T06:53:07.700Z,60
2018-03-22T06:54:16.614Z,70
2018-03-22T06:55:25.445Z,85
2018-03-22T06:56:34.276Z,85
2018-03-22T06:57:43.111Z,95
2018-03-22T06:58:51.932Z,80
2018-03-22T07:00:00.913Z,80
2018-03-22T07:01:09.748Z,80
2018-03-22T07:02:18.572Z,95
2018-03-22T07:03:27.499Z,90
2018-03-22T07:04:36.328Z,85
2018-03-22T07:05:45.257Z,70
2018-03-22T07:06:54.088Z,65
2018-03-22T07:08:02.917Z,60
2018-03-22T07:09:11.745Z,65
2018-03-22T07:10:20.857Z,60
2018-03-22T07:11:29.786Z,60
2018-03-22T07:12:38.616Z,65
2018-03-22T07:13:47.443Z,65
2018-03-22T07:14:56.274Z,65
2018-03-22T07:16:05.103Z,65
2018-03-22T07:17:14.087Z,70
2018-03-22T07:18:22.912Z,70
2018-03-22T07:19:32.053Z,70
2018-03-22T07:20:40.901Z,80
2018-03-22T07:21:49.733Z,75
2018-03-22T07:22:58.664Z,75
2018-03-22T07:24:07.495Z,80
2018-03-22T07:25:16.323Z,80
2018-03-22T07:26:25.426Z,60
2018-03-22T07:27:34.258Z,60
2018-03-22T07:28:43.416Z,50
2018-03-22T07:29:52.244Z,50
2018-03-22T07:31:01.074Z,55
2018-03-22T07:32:10.183Z,50
2018-03-22T07:33:19.012Z,55
2018-03-22T07:34:28.263Z,70
2018-03-22T07:35:37.143Z,65
2018-03-22T07:36:46.015Z,50
2018-03-22T07:37:54.805Z,65
2018-03-22T07:39:03.633Z,85
2018-03-22T07:40:12.514Z,90
2018-03-22T07:41:21.346Z,90
2018-03-22T07:42:30.176Z,90
2018-03-22T07:43:39.287Z,65
2018-03-22T07:44:48.122Z,60
2018-03-22T07:45:56.952Z,60
2018-03-22T07:47:05.789Z,70
2018-03-22T07:48:14.893Z,70
2018-03-22T07:49:23.724Z,85
2018-03-22T07:50:32.559Z,80
2018-03-22T07:51:41.764Z,80
2018-03-22T07:52:50.878Z,80
2018-03-22T07:53:59.984Z,70
2018-03-22T07:55:08.813Z,65
2018-03-22T07:56:17.642Z,60
2018-03-22T07:57:26.723Z,60
2018-03-22T07:58:35.551Z,50
2018-03-22T07:59:44.380Z,50
2018-03-22T08:00:53.217Z,55
2018-03-22T08:02:02.056Z,65
2018-03-22T08:03:11.204Z,55
2018-03-22T08:04:20.037Z,45
2018-03-22T08:05:28.863Z,50
2018-03-22T08:06:37.690Z,50
2018-03-22T08:07:46.523Z,65
2018-03-22T08:08:55.654Z,65
2018-03-22T08:10:04.764Z,75
2018-03-22T08:11:13.588Z,75
2018-03-22T08:12:22.488Z,80
2018-03-22T08:13:31.298Z,75
2018-03-22T08:14:40.278Z,85
2018-03-22T08:15:49.180Z,110
2018-03-22T08:16:58.082Z,145
2018-03-22T08:18:08.160Z,150
2018-03-22T08:19:17.042Z,160
2018-03-22T08:20:25.955Z,190
2018-03-22T08:21:35.007Z,175
2018-03-22T08:22:44.353Z,180
2018-03-22T08:23:53.208Z,150
2018-03-22T08:25:02.034Z,130
2018-03-22T08:26:11.859Z,120
2018-03-22T08:27:21.001Z,145
2018-03-22T08:28:30.127Z,130
2018-03-22T08:29:39.284Z,140
2018-03-22T08:30:48.347Z,140
2018-03-22T08:31:57.824Z,175
2018-03-22T08:33:06.707Z,195
2018-03-22T08:34:15.802Z,195
2018-03-22T08:35:24.901Z,195
2018-03-22T08:36:34.676Z,175
2018-03-22T08:37:43.920Z,155
2018-03-22T08:38:53.824Z,205
2018-03-22T08:40:03.194Z,225
2018-03-22T08:41:12.541Z,230
2018-03-22T08:42:21.866Z,210
2018-03-22T08:43:30.985Z,175
2018-03-22T08:44:40.858Z,170
2018-03-22T08:45:50.323Z,170
2018-03-22T08:46:59.439Z,170
2018-03-22T08:48:08.810Z,170
2018-03-22T08:49:17.672Z,140
2018-03-22T08:50:26.797Z,135
2018-03-22T08:51:36.178Z,160
2018-03-22T08:52:45.267Z,150
2018-03-22T08:53:54.539Z,160
2018-03-22T08:55:04.101Z,165
2018-03-22T08:56:12.930Z,155
2018-03-22T08:57:22.019Z,175
2018-03-22T08:58:31.568Z,175
2018-03-22T08:59:40.597Z,180
2018-03-22T09:00:49.454Z,180
2018-03-22T09:01:58.568Z,185
2018-03-22T09:03:07.408Z,185
2018-03-22T09:04:16.241Z,180
2018-03-22T09:05:25.110Z,170
2018-03-22T09:06:34.144Z,160
2018-03-22T09:07:43.063Z,155
2018-03-22T09:08:51.926Z,155
2018-03-22T09:10:01.143Z,155
2018-03-22T09:11:10.294Z,155
2018-03-22T09:12:19.558Z,150
2018-03-22T09:13:28.389Z,160
2018-03-22T09:14:37.219Z,145
2018-03-22T09:15:46.056Z,160
2018-03-22T09:16:54.886Z,195
2018-03-22T09:18:03.722Z,205
2018-03-22T09:19:12.570Z,200
2018-03-22T09:20:21.401Z,230
2018-03-22T09:21:30.238Z,225
2018-03-22T09:22:39.344Z,200
2018-03-22T09:23:48.450Z,195
2018-03-22T09:24:57.282Z,185
2018-03-22T09:26:06.391Z,190
2018-03-22T09:27:15.221Z,205
2018-03-22T09:28:24.060Z,245
2018-03-22T09:29:32.937Z,230
2018-03-22T09:30:41.769Z,235
2018-03-22T09:31:50.601Z,220
2018-03-22T09:32:59.432Z,220
2018-03-22T09:34:08.310Z,180
2018-03-22T09:35:17.244Z,200
2018-03-22T09:36:26.083Z,185
2018-03-22T09:37:34.913Z,200
2018-03-22T09:38:43.750Z,185
2018-03-22T09:39:52.855Z,160
2018-03-22T09:41:01.836Z,155
2018-03-22T09:42:10.668Z,160
2018-03-22T09:43:19.500Z,150
2018-03-22T09:44:28.335Z,160
2018-03-22T09:45:37.165Z,160
2018-03-22T09:46:46.047Z,195
2018-03-22T09:47:54.880Z,195
2018-03-22T09:49:03.713Z,235
2018-03-22T09:50:12.825Z,240
2018-03-22T09:51:21.690Z,230
2018-03-22T09:52:30.570Z,245
2018-03-22T09:53:39.420Z,260
2018-03-22T09:54:48.253Z,230
2018-03-22T09:55:57.085Z,265
2018-03-22T09:57:05.916Z,225
2018-03-22T09:58:14.896Z,235
2018-03-22T09:59:23.731Z,200
2018-03-22T10:00:32.836Z,195
2018-03-22T10:01:41.668Z,205
2018-03-22T10:02:50.807Z,275
2018-03-22T10:03:59.760Z,270
2018-03-22T10:05:08.593Z,410
2018-03-22T10:06:17.425Z,330
2018-03-22T10:07:26.329Z,310
2018-03-22T10:08:35.184Z,325
2018-03-22T10:09:44.292Z,300
2018-03-22T10:10:53.125Z,230
2018-03-22T10:12:01.957Z,185
2018-03-22T10:13:10.787Z,190
2018-03-22T10:14:19.620Z,200
2018-03-22T10:15:28.503Z,240
2018-03-22T10:16:37.336Z,295
2018-03-22T10:17:46.169Z,320
2018-03-22T10:18:55.004Z,275
2018-03-22T10:20:03.839Z,320
2018-03-22T10:21:12.822Z,340
2018-03-22T10:22:21.660Z,260
2018-03-22T10:23:30.487Z,335
2018-03-22T10:24:39.322Z,290
2018-03-22T10:25:48.156Z,255
2018-03-22T10:26:57.037Z,345
2018-03-22T10:28:05.875Z,265
2018-03-22T10:29:14.983Z,280
2018-03-22T10:30:24.090Z,235
2018-03-22T10:31:32.926Z,235
2018-03-22T10:32:42.183Z,220
2018-03-22T10:33:51.011Z,215
2018-03-22T10:34:59.844Z,210
2018-03-22T10:36:08.684Z,255
2018-03-22T10:37:17.517Z,235
2018-03-22T10:38:26.346Z,230
2018-03-22T10:39:35.177Z,250
2018-03-22T10:40:44.009Z,245
2018-03-22T10:41:52.843Z,285
2018-03-22T10:43:01.678Z,280
2018-03-22T10:44:10.646Z,360
2018-03-22T10:45:19.492Z,385
2018-03-22T10:46:28.324Z,330
2018-03-22T10:47:37.435Z,350
2018-03-22T10:48:46.271Z,405
2018-03-22T10:49:55.102Z,370
2018-03-22T10:51:03.979Z,315
2018-03-22T10:52:12.860Z,320
2018-03-22T10:53:21.699Z,350
2018-03-22T10:54:30.572Z,300
2018-03-22T10:55:39.683Z,365
2018-03-22T10:56:48.848Z,350
2018-03-22T10:57:57.879Z,305
2018-03-22T10:59:06.890Z,295
2018-03-22T11:00:15.790Z,285
2018-03-22T11:01:25.005Z,250
2018-03-22T11:02:34.486Z,275
2018-03-22T11:03:43.395Z,270
2018-03-22T11:04:52.301Z,340
2018-03-22T11:06:01.489Z,235
2018-03-22T11:07:10.321Z,200
2018-03-22T11:08:19.155Z,250
2018-03-22T11:09:28.280Z,225
2018-03-22T11:10:37.111Z,220
2018-03-22T11:11:45.944Z,205
2018-03-22T11:12:55.420Z,185
2018-03-22T11:14:04.324Z,225
2018-03-22T11:15:13.390Z,200
2018-03-22T11:16:22.554Z,225
2018-03-22T11:17:31.943Z,235
2018-03-22T11:18:41.104Z,205
2018-03-22T11:19:50.073Z,205
2018-03-22T11:20:59.380Z,190
2018-03-22T11:22:08.588Z,230
2018-03-22T11:23:17.968Z,265
2018-03-22T11:24:26.836Z,280
2018-03-22T11:25:35.962Z,275
2018-03-22T11:26:45.110Z,280
2018-03-22T11:27:54.185Z,245
2018-03-22T11:29:03.700Z,265
2018-03-22T11:30:12.865Z,315
2018-03-22T11:31:22.445Z,275
2018-03-22T11:32:31.924Z,285
2018-03-22T11:33:40.767Z,305
2018-03-22T11:34:50.165Z,230
2018-03-22T11:35:59.373Z,230
2018-03-22T11:37:08.730Z,185
2018-03-22T11:38:17.694Z,200
2018-03-22T11:39:26.802Z,190
2018-03-22T11:40:35.652Z,280
2018-03-22T11:41:44.767Z,345
2018-03-22T11:42:53.819Z,310
2018-03-22T11:44:02.809Z,280
2018-03-22T11:45:11.657Z,250
2018-03-22T11:46:20.514Z,265
2018-03-22T11:47:29.919Z,325
2018-03-22T11:48:38.748Z,315
2018-03-22T11:49:47.824Z,385
2018-03-22T11:50:56.744Z,225
2018-03-22T11:52:06.413Z,185
2018-03-22T11:53:15.268Z,275
2018-03-22T11:54:24.413Z,230
2018-03-22T11:56:03.218Z,330
2018-03-22T11:57:12.374Z,255
2018-03-22T11:58:21.953Z,270
2018-03-22T11:59:30.847Z,255
2018-03-22T12:00:39.857Z,270
2018-03-22T12:01:49.048Z,295
2018-03-22T12:02:57.879Z,300
2018-03-22T12:04:06.769Z,320
2018-03-22T12:05:15.602Z,310
2018-03-22T12:06:54.192Z,270
2018-03-22T12:08:03.052Z,290
2018-03-22T12:09:11.886Z,320
2018-03-22T12:10:20.766Z,295
2018-03-22T12:11:29.602Z,290
2018-03-22T12:12:38.432Z,295
2018-03-22T12:13:47.264Z,275
2018-03-22T12:14:56.095Z,295
2018-03-22T12:16:04.929Z,305
2018-03-22T12:17:14.061Z,390
2018-03-22T12:18:22.893Z,280
2018-03-22T12:19:31.724Z,305
2018-03-22T12:20:40.556Z,315
2018-03-22T12:21:49.389Z,315
2018-03-22T12:22:58.373Z,235
2018-03-22T12:24:07.210Z,210
2018-03-22T12:25:16.042Z,185
2018-03-22T12:26:24.877Z,215
2018-03-22T12:27:33.709Z,185
2018-03-22T12:28:42.873Z,190
2018-03-22T12:29:51.977Z,190
2018-03-22T12:31:00.807Z,175
2018-03-22T12:32:09.915Z,370
2018-03-22T12:33:18.746Z,495
2018-03-22T12:34:27.679Z,505
2018-03-22T12:35:36.514Z,535
2018-03-22T12:36:45.347Z,315
2018-03-22T12:37:54.181Z,235
2018-03-22T12:39:03.014Z,195
2018-03-22T12:40:11.898Z,245
2018-03-22T12:41:20.830Z,415
2018-03-22T12:42:29.664Z,365
2018-03-22T12:43:38.582Z,265
2018-03-22T12:44:47.346Z,255
2018-03-22T12:45:56.189Z,235
2018-03-22T12:47:05.020Z,195
2018-03-22T12:48:13.853Z,280
2018-03-22T12:49:23.245Z,230
2018-03-22T12:50:32.081Z,200
2018-03-22T12:51:40.913Z,215
2018-03-22T12:52:49.748Z,200
2018-03-22T12:53:58.889Z,265
2018-03-22T12:55:07.720Z,305
2018-03-22T12:56:16.552Z,285
2018-03-22T12:57:25.535Z,360
2018-03-22T12:58:34.369Z,355
2018-03-22T12:59:43.202Z,340
2018-03-22T13:00:52.036Z,320
2018-03-22T13:02:00.870Z,310
2018-03-22T13:03:09.753Z,380
2018-03-22T13:04:18.585Z,400
2018-03-22T13:05:27.696Z,360
2018-03-22T13:06:36.526Z,275
2018-03-22T13:07:45.401Z,335
2018-03-22T13:08:54.301Z,455
2018-03-22T13:10:03.136Z,565
2018-03-22T13:11:12.239Z,415
2018-03-22T13:12:21.070Z,425
2018-03-22T13:13:29.903Z,425
2018-03-22T13:14:39.315Z,455
2018-03-22T13:15:48.431Z,560
2018-03-22T13:16:57.543Z,615
2018-03-22T13:18:06.377Z,735
2018-03-22T13:19:15.215Z,825
2018-03-22T13:20:24.096Z,840
2018-03-22T13:21:32.936Z,985
2018-03-22T13:22:42.062Z,870
2018-03-22T13:23:50.909Z,800
2018-03-22T13:24:59.741Z,830
2018-03-22T13:26:08.726Z,805
2018-03-22T13:27:17.559Z,745
2018-03-22T13:28:26.391Z,825
2018-03-22T13:29:35.229Z,840
2018-03-22T13:30:44.066Z,1100
2018-03-22T13:31:53.487Z,1605
2018-03-22T13:33:02.326Z,1725
2018-03-22T13:34:11.437Z,1430
2018-03-22T13:35:20.578Z,795
2018-03-22T13:36:29.412Z,555
2018-03-22T13:37:38.652Z,550
2018-03-22T13:38:47.487Z,450
2018-03-22T13:39:56.322Z,485
2018-03-22T13:41:05.159Z,370
2018-03-22T13:42:14.001Z,315
2018-03-22T13:43:23.695Z,255
2018-03-22T13:44:32.776Z,360
2018-03-22T13:45:41.594Z,275
2018-03-22T13:46:50.430Z,310
2018-03-22T13:47:59.270Z,240
2018-03-22T13:49:08.530Z,300
2018-03-22T13:50:17.364Z,210
2018-03-22T13:51:26.201Z,205
2018-03-22T13:52:35.035Z,210
2018-03-22T13:53:43.869Z,145
2018-03-22T13:54:52.817Z,125
2018-03-22T13:56:01.636Z,125
2018-03-22T13:57:10.469Z,120
2018-03-22T13:58:19.301Z,165
2018-03-22T13:59:28.134Z,380
2018-03-22T14:00:37.019Z,320
2018-03-22T14:01:46.131Z,275
2018-03-22T14:02:55.526Z,325
2018-03-22T14:04:04.636Z,310
2018-03-22T14:05:13.475Z,280
2018-03-22T14:06:22.983Z,295
2018-03-22T14:07:31.819Z,320
2018-03-22T14:08:40.649Z,410
2018-03-22T14:09:49.486Z,550
2018-03-22T14:10:58.320Z,400
2018-03-22T14:12:07.210Z,305
2018-03-22T14:13:16.594Z,300
2018-03-22T14:14:25.455Z,215
2018-03-22T14:15:34.265Z,205
2018-03-22T14:16:43.101Z,255
2018-03-22T14:17:52.237Z,240
2018-03-22T14:19:01.073Z,165
2018-03-22T14:20:09.905Z,185
2018-03-22T14:21:18.748Z,160
2018-03-22T14:22:27.902Z,180
2018-03-22T14:23:36.784Z,250
2018-03-22T14:24:45.619Z,305
2018-03-22T14:25:54.451Z,340
2018-03-22T14:27:03.282Z,565
2018-03-22T14:28:12.114Z,330
2018-03-22T14:29:21.050Z,220
2018-03-22T14:30:29.886Z,175
2018-03-22T14:31:38.717Z,285
2018-03-22T14:32:47.550Z,275
2018-03-22T14:33:56.386Z,185
2018-03-22T14:35:05.520Z,190
2018-03-22T14:36:14.633Z,350
2018-03-22T14:37:23.468Z,245
2018-03-22T14:38:32.305Z,195
2018-03-22T14:39:41.130Z,170
2018-03-22T14:40:50.347Z,155
2018-03-22T14:41:59.186Z,135
2018-03-22T14:43:08.289Z,140
2018-03-22T14:44:17.124Z,140
2018-03-22T14:45:25.963Z,130
2018-03-22T14:46:34.849Z,165
2018-03-22T14:47:43.680Z,140
2018-03-22T14:48:52.786Z,120
2018-03-22T14:50:01.622Z,140
2018-03-22T14:51:10.451Z,165
2018-03-22T14:52:19.666Z,155
2018-03-22T14:53:28.572Z,230
2018-03-22T14:54:37.406Z,235
2018-03-22T14:55:46.243Z,220
2018-03-22T14:56:55.074Z,220
2018-03-22T14:58:04.436Z,200
2018-03-22T14:59:13.689Z,205
2018-03-22T15:00:22.524Z,190
2018-03-22T15:01:31.367Z,175
2018-03-22T15:02:40.196Z,150
2018-03-22T15:03:49.084Z,130
2018-03-22T15:04:57.911Z,140
2018-03-22T15:06:06.744Z,140
2018-03-22T15:07:15.579Z,125
2018-03-22T15:08:24.413Z,155
2018-03-22T15:09:33.572Z,255
2018-03-22T15:10:42.404Z,325
2018-03-22T15:11:51.514Z,385
2018-03-22T15:13:00.351Z,440
2018-03-22T15:14:09.186Z,450
2018-03-22T15:15:18.221Z,435
2018-03-22T15:16:27.055Z,420
2018-03-22T15:17:35.901Z,350
2018-03-22T15:18:45.625Z,335
2018-03-22T15:19:54.672Z,375
2018-03-22T15:21:03.934Z,350
2018-03-22T15:22:12.816Z,320
2018-03-22T15:23:21.601Z,420
2018-03-22T15:24:30.444Z,315
2018-03-22T15:25:39.298Z,355
2018-03-22T15:26:48.539Z,320
2018-03-22T15:27:57.369Z,305
2018-03-22T15:29:06.206Z,190
2018-03-22T15:30:15.317Z,205
2018-03-22T15:31:24.429Z,180
2018-03-22T15:32:33.805Z,195
2018-03-22T15:33:42.646Z,185
2018-03-22T15:34:51.477Z,180
2018-03-22T15:36:00.310Z,225
2018-03-22T15:37:09.141Z,235
2018-03-22T15:38:18.402Z,265
2018-03-22T15:39:27.235Z,245
2018-03-22T15:40:36.191Z,245
2018-03-22T15:41:45.025Z,205
2018-03-22T15:42:53.857Z,230
2018-03-22T15:44:02.765Z,275
2018-03-22T15:45:11.682Z,295
2018-03-22T15:46:20.518Z,240
2018-03-22T15:47:29.348Z,245
2018-03-22T15:48:38.180Z,225
2018-03-22T15:49:47.169Z,180
2018-03-22T15:50:56.002Z,195
2018-03-22T15:52:04.835Z,200
2018-03-22T15:53:13.671Z,215
2018-03-22T15:54:22.504Z,215
2018-03-22T15:55:31.488Z,245
2018-03-22T15:56:40.596Z,155
2018-03-22T15:57:49.451Z,130
2018-03-22T15:58:58.291Z,120
2018-03-22T16:00:07.185Z,130
2018-03-22T16:01:16.009Z,130
2018-03-22T16:02:24.841Z,115
2018-03-22T16:03:33.676Z,105
2018-03-22T16:04:42.513Z,115
2018-03-22T16:05:51.630Z,95
2018-03-22T16:07:00.612Z,90
2018-03-22T16:08:09.446Z,85
2018-03-22T16:09:18.556Z,85
2018-03-22T16:10:27.392Z,70
2018-03-22T16:11:36.501Z,85
2018-03-22T16:12:45.434Z,95
2018-03-22T16:13:54.268Z,110
2018-03-22T16:15:03.104Z,110
2018-03-22T16:16:11.949Z,100
2018-03-22T16:17:20.781Z,95
2018-03-22T16:18:29.787Z,120
2018-03-22T16:19:38.596Z,140